Terminal Aerodrome Forecast
Issued by NWS

Home | Current Version | Previous Version | Text Only | Print | Product List | Glossary On
Versions: 1 2 3 4 5 6 7 8 9 10 11 12 13 14 15 16 17 18 19
000
FTUS46 KLOX 280630 AAA
TAFOXR
TAF AMD
KOXR 280630Z 2807/2906 VRB03KT P6SM SKC
     FM280800 VRB03KT P6SM BKN015
     FM281100 VRB03KT P6SM OVC008
     FM281800 26012KT P6SM SKC
     FM290500 VRB03KT P6SM SKC=

USA.gov is the U.S. government's official web portal to all federal, state and local government web resources and services.